»·PEaware :: N2442P KFOT-KUKI

N2442P :: KFOT-KUKI

FLIGHT INFORMATION

Flight Status: Arrived
Operator: Privately registered:
United States
More flights under this callsign
Pilot: Ken Q. (14290)
Aircraft: CESSNA 210 CENTURION
(C210)
More flights by this aircraft type
Origin: KFOT Rohnerville
United States
Destination: KUKI Ukiah Mun
United States
More flights between these airports :: More routes between these airports
Route: +KFOT ENI KUKI
File this flight plan on PilotEdge
Remarks: X
Altitude:
(Current/Filed)
7,500ft
Speed:
(Current/Filed)
175kts
Departed: 03-May-19 01:31 PM
Arrived: 03-May-19 02:13 PM
Distance/Time
Traveled:
96nm/0:42
Distance/Time
To Go:
Arrived

Flight Plot

Page will automatically refresh every two minutes.

Flight plan parsing failed; only flown route is shown


Map Options




Map Legend


Flown Route
Filed Route
Departure Airport
Arrival Airport
Navaid (VOR, NDB)
Fix

Horizontal Profiles

Position Reports

Time Latitude Longitude Heading Altitude Ground
Speed
03-May-19 13:07 40.555875 -124.133339 222 358ft 0kts
03-May-19 13:08 40.555875 -124.133339 222 358ft 0kts
03-May-19 13:09 40.555875 -124.133339 222 358ft 0kts
03-May-19 13:10 40.555875 -124.133339 222 358ft 0kts
03-May-19 13:11 40.555875 -124.133339 222 358ft 0kts
03-May-19 13:12 40.555875 -124.133339 222 358ft 0kts
03-May-19 13:13 40.555875 -124.133339 222 358ft 0kts
03-May-19 13:14 40.555875 -124.133339 222 358ft 0kts
03-May-19 13:15 40.555875 -124.133339 222 358ft 0kts
03-May-19 13:16 40.555875 -124.133339 222 358ft 0kts
03-May-19 13:17 40.555875 -124.133339 222 358ft 0kts
03-May-19 13:18 40.555875 -124.133339 222 358ft 0kts
03-May-19 13:19 40.555875 -124.133339 222 358ft 0kts
03-May-19 13:20 40.555874 -124.133340 222 358ft 0kts
03-May-19 13:21 40.555874 -124.133341 222 358ft 0kts
03-May-19 13:22 40.555848 -124.133359 196 358ft 2kts
03-May-19 13:23 40.554740 -124.132057 128 358ft 6kts
03-May-19 13:24 40.553188 -124.130154 126 358ft 7kts
03-May-19 13:25 40.551979 -124.128066 128 358ft 6kts
03-May-19 13:26 40.551295 -124.126630 301 358ft 0kts
03-May-19 13:27 40.551295 -124.126630 301 358ft 0kts
03-May-19 13:28 40.551299 -124.126638 300 358ft 0kts
03-May-19 13:29 40.550780 -124.126876 233 358ft 11kts
03-May-19 13:30 40.560742 -124.141031 317 810ft 109kts
03-May-19 13:31 40.549061 -124.164348 139 1536ft 169kts
03-May-19 13:33 40.517090 -124.118237 137 2213ft 171kts
03-May-19 13:34 40.484479 -124.074972 134 3092ft 160kts
03-May-19 13:35 40.455682 -124.037217 134 3957ft 137kts
03-May-19 13:36 40.428098 -124.004675 144 4842ft 130kts
03-May-19 13:37 40.399395 -123.977374 144 5742ft 125kts
03-May-19 13:38 40.371651 -123.950544 144 6629ft 122kts
03-May-19 13:39 40.341837 -123.932027 159 7432ft 121kts
03-May-19 13:40 40.306100 -123.914396 159 7497ft 147kts
03-May-19 13:41 40.266553 -123.894899 159 7495ft 159kts
03-May-19 13:42 40.224401 -123.874151 159 7493ft 163kts
03-May-19 13:43 40.181564 -123.853088 159 7490ft 165kts
03-May-19 13:44 40.138486 -123.831924 159 7484ft 164kts
03-May-19 13:45 40.095844 -123.810943 159 7482ft 163kts
03-May-19 13:46 40.053259 -123.789993 159 7486ft 164kts
03-May-19 13:47 40.010254 -123.768854 159 7476ft 164kts
03-May-19 13:48 39.967611 -123.747910 159 7496ft 161kts
03-May-19 13:49 39.925464 -123.727232 159 7550ft 165kts
03-May-19 13:50 39.882338 -123.706082 159 7541ft 163kts
03-May-19 13:51 39.839981 -123.685294 159 7539ft 162kts
03-May-19 13:51 39.804729 -123.668007 159 7540ft 162kts
03-May-19 13:53 39.754993 -123.643640 159 7533ft 163kts
03-May-19 13:54 39.712908 -123.622060 158 7531ft 163kts
03-May-19 13:54 39.677760 -123.603882 158 7527ft 163kts
03-May-19 13:56 39.628703 -123.578504 158 7524ft 163kts
03-May-19 13:57 39.586407 -123.556595 158 7523ft 164kts
03-May-19 13:57 39.551021 -123.538272 158 7523ft 164kts
03-May-19 13:58 39.510154 -123.510663 148 7513ft 165kts
03-May-19 14:00 39.465848 -123.473035 141 7054ft 160kts
03-May-19 14:00 39.437507 -123.443138 141 6635ft 155kts
03-May-19 14:01 39.406416 -123.408908 138 6055ft 140kts
03-May-19 14:03 39.372742 -123.370578 139 5500ft 129kts
03-May-19 14:03 39.350203 -123.344248 137 5077ft 132kts
03-May-19 14:04 39.323712 -123.311972 137 4580ft 130kts
03-May-19 14:05 39.296758 -123.279568 137 4079ft 133kts
03-May-19 14:06 39.269185 -123.251088 139 3583ft 117kts
03-May-19 14:07 39.242663 -123.230423 166 3050ft 108kts
03-May-19 14:08 39.214866 -123.223903 172 2619ft 89kts
03-May-19 14:09 39.190169 -123.217993 168 2022ft 93kts
03-May-19 14:10 39.167007 -123.211866 167 1789ft 81kts
03-May-19 14:11 39.146888 -123.206471 164 1063ft 64kts
03-May-19 14:12 39.132865 -123.202348 185 618ft 17kts
03-May-19 14:13 39.128006 -123.202067 259 617ft 3kts
03-May-19 14:14 39.129183 -123.202940 267 617ft 3kts
03-May-19 14:15 39.129063 -123.203128 163 617ft 0kts
03-May-19 14:16 39.129063 -123.203128 163 617ft 0kts

Navigation Log

Ident Type
Flight plan parsing failed, navigation log unavailable